sensor_id;sensor_type;location;lat;lon;timestamp;temperature;humidity
210;DHT22;90;48.810;9.120;2022-12-07T00:01:43;4.60;94.30
210;DHT22;90;48.810;9.120;2022-12-07T00:04:15;4.60;93.90
210;DHT22;90;48.810;9.120;2022-12-07T00:06:43;4.60;93.60
210;DHT22;90;48.810;9.120;2022-12-07T00:09:12;4.50;93.60
210;DHT22;90;48.810;9.120;2022-12-07T00:11:40;4.50;93.70
210;DHT22;90;48.810;9.120;2022-12-07T00:14:10;4.50;94.00
210;DHT22;90;48.810;9.120;2022-12-07T00:16:38;4.50;93.90
210;DHT22;90;48.810;9.120;2022-12-07T00:19:05;4.50;93.90
210;DHT22;90;48.810;9.120;2022-12-07T00:21:34;4.50;93.80
210;DHT22;90;48.810;9.120;2022-12-07T00:24:05;4.50;93.70
210;DHT22;90;48.810;9.120;2022-12-07T00:26:34;4.50;93.50
210;DHT22;90;48.810;9.120;2022-12-07T00:29:04;4.50;93.50
210;DHT22;90;48.810;9.120;2022-12-07T00:31:33;4.50;93.40
210;DHT22;90;48.810;9.120;2022-12-07T00:34:01;4.50;94.00
210;DHT22;90;48.810;9.120;2022-12-07T00:36:29;4.60;92.90
210;DHT22;90;48.810;9.120;2022-12-07T00:38:59;4.50;92.90
210;DHT22;90;48.810;9.120;2022-12-07T00:41:27;4.60;92.80
210;DHT22;90;48.810;9.120;2022-12-07T00:43:55;4.60;92.60
210;DHT22;90;48.810;9.120;2022-12-07T00:46:23;4.50;92.30
210;DHT22;90;48.810;9.120;2022-12-07T00:48:51;4.50;92.20
210;DHT22;90;48.810;9.120;2022-12-07T00:51:20;4.50;92.10
210;DHT22;90;48.810;9.120;2022-12-07T00:53:47;4.50;92.40
210;DHT22;90;48.810;9.120;2022-12-07T00:56:18;4.50;91.40
210;DHT22;90;48.810;9.120;2022-12-07T00:58:51;4.50;91.50
210;DHT22;90;48.810;9.120;2022-12-07T01:01:18;4.50;91.80
210;DHT22;90;48.810;9.120;2022-12-07T01:03:45;4.50;92.00
210;DHT22;90;48.810;9.120;2022-12-07T01:06:17;4.50;92.10
210;DHT22;90;48.810;9.120;2022-12-07T01:08:44;4.50;91.70
210;DHT22;90;48.810;9.120;2022-12-07T01:11:13;4.50;91.50
210;DHT22;90;48.810;9.120;2022-12-07T01:13:42;4.50;91.60
210;DHT22;90;48.810;9.120;2022-12-07T01:16:12;4.50;91.70
210;DHT22;90;48.810;9.120;2022-12-07T01:18:39;4.50;91.40
210;DHT22;90;48.810;9.120;2022-12-07T01:21:08;4.60;90.90
210;DHT22;90;48.810;9.120;2022-12-07T01:23:36;4.60;91.20
210;DHT22;90;48.810;9.120;2022-12-07T01:26:05;4.50;91.40
210;DHT22;90;48.810;9.120;2022-12-07T01:28:34;4.50;91.30
210;DHT22;90;48.810;9.120;2022-12-07T01:31:04;4.50;91.70
210;DHT22;90;48.810;9.120;2022-12-07T01:33:33;4.50;91.60
210;DHT22;90;48.810;9.120;2022-12-07T01:36:01;4.50;91.90
210;DHT22;90;48.810;9.120;2022-12-07T01:38:29;4.50;91.90
210;DHT22;90;48.810;9.120;2022-12-07T01:40:57;4.50;92.00
210;DHT22;90;48.810;9.120;2022-12-07T01:43:27;4.40;92.00
210;DHT22;90;48.810;9.120;2022-12-07T01:45:54;4.50;92.10
210;DHT22;90;48.810;9.120;2022-12-07T01:48:27;4.50;92.00
210;DHT22;90;48.810;9.120;2022-12-07T01:50:56;4.50;92.00
210;DHT22;90;48.810;9.120;2022-12-07T01:53:28;4.40;92.10
210;DHT22;90;48.810;9.120;2022-12-07T01:55:57;4.40;91.90
210;DHT22;90;48.810;9.120;2022-12-07T01:58:25;4.50;92.10
210;DHT22;90;48.810;9.120;2022-12-07T02:00:52;4.50;92.00
210;DHT22;90;48.810;9.120;2022-12-07T02:03:25;4.40;91.80
210;DHT22;90;48.810;9.120;2022-12-07T02:05:54;4.30;92.40
210;DHT22;90;48.810;9.120;2022-12-07T02:08:22;4.40;92.50
210;DHT22;90;48.810;9.120;2022-12-07T02:10:49;4.40;92.10
210;DHT22;90;48.810;9.120;2022-12-07T02:13:19;4.40;92.20
210;DHT22;90;48.810;9.120;2022-12-07T02:16:03;4.50;91.50
210;DHT22;90;48.810;9.120;2022-12-07T02:18:48;4.40;92.20
210;DHT22;90;48.810;9.120;2022-12-07T02:21:22;4.40;92.40
210;DHT22;90;48.810;9.120;2022-12-07T02:24:15;4.40;92.10
210;DHT22;90;48.810;9.120;2022-12-07T02:27:07;4.40;92.40
210;DHT22;90;48.810;9.120;2022-12-07T02:29:41;4.40;92.30
210;DHT22;90;48.810;9.120;2022-12-07T02:32:14;4.40;92.20
210;DHT22;90;48.810;9.120;2022-12-07T02:34:48;4.40;92.10
210;DHT22;90;48.810;9.120;2022-12-07T02:37:29;4.50;91.80
210;DHT22;90;48.810;9.120;2022-12-07T02:40:01;4.40;91.60
210;DHT22;90;48.810;9.120;2022-12-07T02:42:36;4.40;91.90
210;DHT22;90;48.810;9.120;2022-12-07T02:45:07;4.40;91.90
210;DHT22;90;48.810;9.120;2022-12-07T02:47:36;4.40;92.00
210;DHT22;90;48.810;9.120;2022-12-07T02:50:05;4.50;91.90
210;DHT22;90;48.810;9.120;2022-12-07T02:52:32;4.50;91.90
210;DHT22;90;48.810;9.120;2022-12-07T02:55:00;4.40;92.00
210;DHT22;90;48.810;9.120;2022-12-07T02:57:47;4.50;92.00
210;DHT22;90;48.810;9.120;2022-12-07T03:00:19;4.50;92.00
210;DHT22;90;48.810;9.120;2022-12-07T03:02:52;4.50;91.90
210;DHT22;90;48.810;9.120;2022-12-07T03:05:48;4.60;91.80
210;DHT22;90;48.810;9.120;2022-12-07T03:08:23;4.50;91.60
210;DHT22;90;48.810;9.120;2022-12-07T03:10:56;4.50;91.40
210;DHT22;90;48.810;9.120;2022-12-07T03:13:29;4.50;91.50
210;DHT22;90;48.810;9.120;2022-12-07T03:16:03;4.50;91.60
210;DHT22;90;48.810;9.120;2022-12-07T03:18:35;4.50;91.60
210;DHT22;90;48.810;9.120;2022-12-07T03:21:09;4.50;91.60
210;DHT22;90;48.810;9.120;2022-12-07T03:23:38;4.50;91.60
210;DHT22;90;48.810;9.120;2022-12-07T03:26:10;4.50;91.30
210;DHT22;90;48.810;9.120;2022-12-07T03:28:44;4.50;91.30
210;DHT22;90;48.810;9.120;2022-12-07T03:31:17;4.50;91.10
210;DHT22;90;48.810;9.120;2022-12-07T03:33:50;4.50;91.00
210;DHT22;90;48.810;9.120;2022-12-07T03:36:22;4.50;91.00
210;DHT22;90;48.810;9.120;2022-12-07T03:38:54;4.50;90.80
210;DHT22;90;48.810;9.120;2022-12-07T03:41:24;4.40;90.70
210;DHT22;90;48.810;9.120;2022-12-07T03:43:53;4.50;91.00
210;DHT22;90;48.810;9.120;2022-12-07T03:46:27;4.50;90.30
210;DHT22;90;48.810;9.120;2022-12-07T03:49:00;4.60;89.90
210;DHT22;90;48.810;9.120;2022-12-07T03:51:36;4.60;89.30
210;DHT22;90;48.810;9.120;2022-12-07T03:54:10;4.60;88.80
210;DHT22;90;48.810;9.120;2022-12-07T03:56:40;4.50;89.00
210;DHT22;90;48.810;9.120;2022-12-07T03:59:09;4.40;88.90
210;DHT22;90;48.810;9.120;2022-12-07T04:01:38;4.40;89.20
210;DHT22;90;48.810;9.120;2022-12-07T04:04:05;4.40;89.00
210;DHT22;90;48.810;9.120;2022-12-07T04:06:32;4.40;88.90
210;DHT22;90;48.810;9.120;2022-12-07T04:08:59;4.30;88.50
210;DHT22;90;48.810;9.120;2022-12-07T04:11:26;4.20;88.30
210;DHT22;90;48.810;9.120;2022-12-07T04:13:53;4.20;88.20
210;DHT22;90;48.810;9.120;2022-12-07T04:16:38;4.20;88.10
210;DHT22;90;48.810;9.120;2022-12-07T04:19:05;4.20;87.40
210;DHT22;90;48.810;9.120;2022-12-07T04:21:32;4.20;87.60
210;DHT22;90;48.810;9.120;2022-12-07T04:24:00;4.20;87.30
210;DHT22;90;48.810;9.120;2022-12-07T04:26:28;4.10;86.20
210;DHT22;90;48.810;9.120;2022-12-07T04:28:54;4.10;86.00
210;DHT22;90;48.810;9.120;2022-12-07T04:31:22;4.00;86.30
210;DHT22;90;48.810;9.120;2022-12-07T04:33:50;4.00;86.30
210;DHT22;90;48.810;9.120;2022-12-07T04:36:17;4.00;85.60
210;DHT22;90;48.810;9.120;2022-12-07T04:38:45;4.00;85.30
210;DHT22;90;48.810;9.120;2022-12-07T04:41:12;4.00;84.70
210;DHT22;90;48.810;9.120;2022-12-07T04:43:39;4.10;84.20
210;DHT22;90;48.810;9.120;2022-12-07T04:46:06;4.10;83.40
210;DHT22;90;48.810;9.120;2022-12-07T04:48:33;4.20;83.30
210;DHT22;90;48.810;9.120;2022-12-07T04:51:02;4.30;82.70
210;DHT22;90;48.810;9.120;2022-12-07T04:53:30;4.30;82.50
210;DHT22;90;48.810;9.120;2022-12-07T04:55:57;4.20;82.00
210;DHT22;90;48.810;9.120;2022-12-07T04:58:24;4.20;82.10
210;DHT22;90;48.810;9.120;2022-12-07T05:00:54;4.20;82.10
210;DHT22;90;48.810;9.120;2022-12-07T05:03:21;4.30;82.00
210;DHT22;90;48.810;9.120;2022-12-07T05:05:48;4.40;81.30
210;DHT22;90;48.810;9.120;2022-12-07T05:08:16;4.30;79.30
210;DHT22;90;48.810;9.120;2022-12-07T05:10:44;4.30;79.50
210;DHT22;90;48.810;9.120;2022-12-07T05:13:11;4.30;78.60
210;DHT22;90;48.810;9.120;2022-12-07T05:15:38;4.40;79.50
210;DHT22;90;48.810;9.120;2022-12-07T05:18:05;4.40;79.10
210;DHT22;90;48.810;9.120;2022-12-07T05:20:32;4.30;78.80
210;DHT22;90;48.810;9.120;2022-12-07T05:22:59;4.30;79.30
210;DHT22;90;48.810;9.120;2022-12-07T05:25:28;4.20;79.70
210;DHT22;90;48.810;9.120;2022-12-07T05:27:55;4.20;80.10
210;DHT22;90;48.810;9.120;2022-12-07T05:30:22;4.10;81.80
210;DHT22;90;48.810;9.120;2022-12-07T05:32:50;4.20;82.50
210;DHT22;90;48.810;9.120;2022-12-07T05:35:18;4.10;83.50
210;DHT22;90;48.810;9.120;2022-12-07T05:37:45;4.00;84.20
210;DHT22;90;48.810;9.120;2022-12-07T05:40:13;4.00;84.30
210;DHT22;90;48.810;9.120;2022-12-07T05:42:42;4.00;84.70
210;DHT22;90;48.810;9.120;2022-12-07T05:45:09;3.90;84.70
210;DHT22;90;48.810;9.120;2022-12-07T05:47:38;4.00;84.60
210;DHT22;90;48.810;9.120;2022-12-07T05:50:06;4.00;84.50
210;DHT22;90;48.810;9.120;2022-12-07T05:52:33;4.00;84.40
210;DHT22;90;48.810;9.120;2022-12-07T05:55:00;4.00;84.70
210;DHT22;90;48.810;9.120;2022-12-07T05:57:27;4.00;84.70
210;DHT22;90;48.810;9.120;2022-12-07T05:59:55;3.90;84.50
210;DHT22;90;48.810;9.120;2022-12-07T06:02:21;3.90;85.30
210;DHT22;90;48.810;9.120;2022-12-07T06:04:48;3.90;85.40
210;DHT22;90;48.810;9.120;2022-12-07T06:07:16;3.90;85.50
210;DHT22;90;48.810;9.120;2022-12-07T06:09:43;3.90;85.50
210;DHT22;90;48.810;9.120;2022-12-07T06:12:10;3.90;85.40
210;DHT22;90;48.810;9.120;2022-12-07T06:14:56;3.90;85.30
210;DHT22;90;48.810;9.120;2022-12-07T06:17:24;4.00;85.50
210;DHT22;90;48.810;9.120;2022-12-07T06:19:51;3.90;85.30
210;DHT22;90;48.810;9.120;2022-12-07T06:22:18;3.90;85.30
210;DHT22;90;48.810;9.120;2022-12-07T06:24:45;4.00;84.90
210;DHT22;90;48.810;9.120;2022-12-07T06:27:12;4.00;84.80
210;DHT22;90;48.810;9.120;2022-12-07T06:29:39;4.10;84.50
210;DHT22;90;48.810;9.120;2022-12-07T06:32:07;4.00;84.80
210;DHT22;90;48.810;9.120;2022-12-07T06:34:35;4.10;85.00
210;DHT22;90;48.810;9.120;2022-12-07T06:37:02;4.10;84.90
210;DHT22;90;48.810;9.120;2022-12-07T06:39:29;4.10;84.80
210;DHT22;90;48.810;9.120;2022-12-07T06:41:56;4.10;85.00
210;DHT22;90;48.810;9.120;2022-12-07T06:44:23;4.00;84.70
210;DHT22;90;48.810;9.120;2022-12-07T06:46:51;3.90;84.60
210;DHT22;90;48.810;9.120;2022-12-07T06:49:19;3.90;84.00
210;DHT22;90;48.810;9.120;2022-12-07T06:51:47;3.90;84.10
210;DHT22;90;48.810;9.120;2022-12-07T06:54:15;3.90;82.30
210;DHT22;90;48.810;9.120;2022-12-07T06:56:42;3.90;82.50
210;DHT22;90;48.810;9.120;2022-12-07T06:59:09;3.80;81.80
210;DHT22;90;48.810;9.120;2022-12-07T07:01:36;3.80;81.50
210;DHT22;90;48.810;9.120;2022-12-07T07:04:03;3.80;81.80
210;DHT22;90;48.810;9.120;2022-12-07T07:06:32;3.80;82.10
210;DHT22;90;48.810;9.120;2022-12-07T07:08:59;3.80;81.50
210;DHT22;90;48.810;9.120;2022-12-07T07:11:26;3.90;81.30
210;DHT22;90;48.810;9.120;2022-12-07T07:13:53;3.90;81.30
210;DHT22;90;48.810;9.120;2022-12-07T07:16:23;3.90;81.20
210;DHT22;90;48.810;9.120;2022-12-07T07:18:50;4.30;91.40
210;DHT22;90;48.810;9.120;2022-12-07T07:21:17;4.40;83.80
210;DHT22;90;48.810;9.120;2022-12-07T07:23:45;4.30;80.60
210;DHT22;90;48.810;9.120;2022-12-07T07:26:12;4.20;79.80
210;DHT22;90;48.810;9.120;2022-12-07T07:28:39;4.10;80.10
210;DHT22;90;48.810;9.120;2022-12-07T07:31:07;4.10;79.90
210;DHT22;90;48.810;9.120;2022-12-07T07:33:34;4.10;79.40
210;DHT22;90;48.810;9.120;2022-12-07T07:36:01;4.00;79.70
210;DHT22;90;48.810;9.120;2022-12-07T07:38:29;4.10;80.10
210;DHT22;90;48.810;9.120;2022-12-07T07:40:57;4.00;79.90
210;DHT22;90;48.810;9.120;2022-12-07T07:43:24;4.00;79.90
210;DHT22;90;48.810;9.120;2022-12-07T07:45:51;4.10;79.90
210;DHT22;90;48.810;9.120;2022-12-07T07:48:18;4.10;79.80
210;DHT22;90;48.810;9.120;2022-12-07T07:50:45;4.10;79.60
210;DHT22;90;48.810;9.120;2022-12-07T07:53:12;4.20;79.40
210;DHT22;90;48.810;9.120;2022-12-07T07:55:39;4.20;79.40
210;DHT22;90;48.810;9.120;2022-12-07T07:58:07;4.20;79.10
210;DHT22;90;48.810;9.120;2022-12-07T08:00:35;4.10;79.20
210;DHT22;90;48.810;9.120;2022-12-07T08:03:02;4.10;79.30
210;DHT22;90;48.810;9.120;2022-12-07T08:05:29;4.10;79.00
210;DHT22;90;48.810;9.120;2022-12-07T08:07:57;4.10;79.30
210;DHT22;90;48.810;9.120;2022-12-07T08:10:25;4.30;78.50
210;DHT22;90;48.810;9.120;2022-12-07T08:12:52;4.30;77.60
210;DHT22;90;48.810;9.120;2022-12-07T08:15:41;4.40;77.40
210;DHT22;90;48.810;9.120;2022-12-07T08:18:09;4.30;77.40
210;DHT22;90;48.810;9.120;2022-12-07T08:20:38;4.40;77.90
210;DHT22;90;48.810;9.120;2022-12-07T08:23:08;4.40;77.30
210;DHT22;90;48.810;9.120;2022-12-07T08:25:36;4.40;77.40
210;DHT22;90;48.810;9.120;2022-12-07T08:28:05;4.30;77.40
210;DHT22;90;48.810;9.120;2022-12-07T08:30:33;4.30;78.10
210;DHT22;90;48.810;9.120;2022-12-07T08:33:01;4.30;77.90
210;DHT22;90;48.810;9.120;2022-12-07T08:35:29;4.40;77.90
210;DHT22;90;48.810;9.120;2022-12-07T08:37:56;4.50;77.50
210;DHT22;90;48.810;9.120;2022-12-07T08:40:23;4.50;77.00
210;DHT22;90;48.810;9.120;2022-12-07T08:42:51;4.50;76.80
210;DHT22;90;48.810;9.120;2022-12-07T08:45:19;4.50;77.20
210;DHT22;90;48.810;9.120;2022-12-07T08:47:50;4.50;77.00
210;DHT22;90;48.810;9.120;2022-12-07T08:50:20;4.50;76.70
210;DHT22;90;48.810;9.120;2022-12-07T08:52:49;4.50;76.90
210;DHT22;90;48.810;9.120;2022-12-07T08:55:17;4.60;76.30
210;DHT22;90;48.810;9.120;2022-12-07T08:57:45;4.60;75.70
210;DHT22;90;48.810;9.120;2022-12-07T09:00:14;4.60;75.50
210;DHT22;90;48.810;9.120;2022-12-07T09:02:43;4.50;75.90
210;DHT22;90;48.810;9.120;2022-12-07T09:05:10;4.60;76.30
210;DHT22;90;48.810;9.120;2022-12-07T09:07:39;4.50;76.70
210;DHT22;90;48.810;9.120;2022-12-07T09:10:07;4.60;76.70
210;DHT22;90;48.810;9.120;2022-12-07T09:12:34;4.60;76.70
210;DHT22;90;48.810;9.120;2022-12-07T09:15:01;4.60;76.60
210;DHT22;90;48.810;9.120;2022-12-07T09:17:32;4.70;76.50
210;DHT22;90;48.810;9.120;2022-12-07T09:19:59;4.70;76.40
210;DHT22;90;48.810;9.120;2022-12-07T09:22:28;4.70;76.50
210;DHT22;90;48.810;9.120;2022-12-07T09:24:57;4.70;76.80
210;DHT22;90;48.810;9.120;2022-12-07T09:27:24;4.70;77.10
210;DHT22;90;48.810;9.120;2022-12-07T09:29:52;4.70;77.30
210;DHT22;90;48.810;9.120;2022-12-07T09:32:19;4.80;76.70
210;DHT22;90;48.810;9.120;2022-12-07T09:34:47;4.90;77.00
210;DHT22;90;48.810;9.120;2022-12-07T09:37:14;4.90;77.10
210;DHT22;90;48.810;9.120;2022-12-07T09:39:41;5.00;76.10
210;DHT22;90;48.810;9.120;2022-12-07T09:42:21;5.00;76.00
210;DHT22;90;48.810;9.120;2022-12-07T09:44:52;5.00;76.60
210;DHT22;90;48.810;9.120;2022-12-07T09:47:19;5.10;77.10
210;DHT22;90;48.810;9.120;2022-12-07T09:49:49;5.00;77.80
210;DHT22;90;48.810;9.120;2022-12-07T09:52:18;5.10;77.10
210;DHT22;90;48.810;9.120;2022-12-07T09:54:48;5.10;77.20
210;DHT22;90;48.810;9.120;2022-12-07T09:57:17;5.20;76.70
210;DHT22;90;48.810;9.120;2022-12-07T09:59:45;5.10;77.40
210;DHT22;90;48.810;9.120;2022-12-07T10:02:36;5.10;76.60
210;DHT22;90;48.810;9.120;2022-12-07T10:05:05;5.10;77.00
210;DHT22;90;48.810;9.120;2022-12-07T10:07:33;5.10;77.40
210;DHT22;90;48.810;9.120;2022-12-07T10:10:03;5.10;77.60
210;DHT22;90;48.810;9.120;2022-12-07T10:12:55;5.10;78.00
210;DHT22;90;48.810;9.120;2022-12-07T10:15:22;5.00;78.40
210;DHT22;90;48.810;9.120;2022-12-07T10:17:52;5.00;78.90
210;DHT22;90;48.810;9.120;2022-12-07T10:20:22;5.10;79.10
210;DHT22;90;48.810;9.120;2022-12-07T10:23:01;5.10;78.70
210;DHT22;90;48.810;9.120;2022-12-07T10:25:32;5.20;79.30
210;DHT22;90;48.810;9.120;2022-12-07T10:28:12;5.20;79.50
210;DHT22;90;48.810;9.120;2022-12-07T10:30:52;5.40;78.70
210;DHT22;90;48.810;9.120;2022-12-07T10:33:34;5.40;78.20
210;DHT22;90;48.810;9.120;2022-12-07T10:36:17;5.50;78.60
210;DHT22;90;48.810;9.120;2022-12-07T10:38:46;5.40;78.80
210;DHT22;90;48.810;9.120;2022-12-07T10:41:13;5.40;79.20
210;DHT22;90;48.810;9.120;2022-12-07T10:43:52;5.80;91.90
210;DHT22;90;48.810;9.120;2022-12-07T10:46:39;6.10;86.20
210;DHT22;90;48.810;9.120;2022-12-07T10:49:30;5.90;79.70
210;DHT22;90;48.810;9.120;2022-12-07T10:52:05;5.80;79.70
210;DHT22;90;48.810;9.120;2022-12-07T10:54:43;5.70;79.90
210;DHT22;90;48.810;9.120;2022-12-07T10:57:26;5.60;80.40
210;DHT22;90;48.810;9.120;2022-12-07T11:00:07;5.40;81.60
210;DHT22;90;48.810;9.120;2022-12-07T11:05:31;5.40;81.60
210;DHT22;90;48.810;9.120;2022-12-07T11:08:09;5.40;81.30
210;DHT22;90;48.810;9.120;2022-12-07T11:10:46;5.40;81.40
210;DHT22;90;48.810;9.120;2022-12-07T11:13:28;5.40;81.20
210;DHT22;90;48.810;9.120;2022-12-07T11:16:19;5.40;80.90
210;DHT22;90;48.810;9.120;2022-12-07T11:19:13;5.20;81.10
210;DHT22;90;48.810;9.120;2022-12-07T11:21:48;5.20;81.60
210;DHT22;90;48.810;9.120;2022-12-07T11:24:25;5.30;81.30
210;DHT22;90;48.810;9.120;2022-12-07T11:27:06;5.20;81.40
210;DHT22;90;48.810;9.120;2022-12-07T11:29:50;5.20;81.80
210;DHT22;90;48.810;9.120;2022-12-07T11:32:38;5.20;82.30
210;DHT22;90;48.810;9.120;2022-12-07T11:35:14;5.20;83.30
210;DHT22;90;48.810;9.120;2022-12-07T11:37:44;5.20;84.50
210;DHT22;90;48.810;9.120;2022-12-07T11:40:17;5.10;85.40
210;DHT22;90;48.810;9.120;2022-12-07T11:42:50;5.10;85.70
210;DHT22;90;48.810;9.120;2022-12-07T11:45:23;5.10;85.70
210;DHT22;90;48.810;9.120;2022-12-07T11:47:57;5.20;85.30
210;DHT22;90;48.810;9.120;2022-12-07T11:50:30;5.20;85.50
210;DHT22;90;48.810;9.120;2022-12-07T11:53:01;5.10;85.80
210;DHT22;90;48.810;9.120;2022-12-07T11:55:38;5.10;85.80
210;DHT22;90;48.810;9.120;2022-12-07T11:58:18;5.10;85.60
210;DHT22;90;48.810;9.120;2022-12-07T12:00:48;5.20;85.20
210;DHT22;90;48.810;9.120;2022-12-07T12:03:24;5.10;85.50
210;DHT22;90;48.810;9.120;2022-12-07T12:05:55;5.10;85.00
210;DHT22;90;48.810;9.120;2022-12-07T12:08:28;5.10;84.90
210;DHT22;90;48.810;9.120;2022-12-07T12:11:03;5.10;85.00
210;DHT22;90;48.810;9.120;2022-12-07T12:13:53;5.00;85.50
210;DHT22;90;48.810;9.120;2022-12-07T12:16:51;5.10;85.10
210;DHT22;90;48.810;9.120;2022-12-07T12:19:33;5.00;84.80
210;DHT22;90;48.810;9.120;2022-12-07T12:22:07;4.90;85.50
210;DHT22;90;48.810;9.120;2022-12-07T12:24:39;4.90;85.40
210;DHT22;90;48.810;9.120;2022-12-07T12:27:09;4.90;85.00
210;DHT22;90;48.810;9.120;2022-12-07T12:29:41;4.90;85.30
210;DHT22;90;48.810;9.120;2022-12-07T12:32:14;4.90;85.30
210;DHT22;90;48.810;9.120;2022-12-07T12:35:00;4.90;85.30
210;DHT22;90;48.810;9.120;2022-12-07T12:37:45;5.00;85.10
210;DHT22;90;48.810;9.120;2022-12-07T12:43:44;5.00;84.80
210;DHT22;90;48.810;9.120;2022-12-07T12:49:42;5.00;85.30
210;DHT22;90;48.810;9.120;2022-12-07T12:55:17;5.00;84.40
210;DHT22;90;48.810;9.120;2022-12-07T12:57:48;4.90;84.40
210;DHT22;90;48.810;9.120;2022-12-07T13:00:34;4.90;84.70
210;DHT22;90;48.810;9.120;2022-12-07T13:03:01;4.90;84.40
210;DHT22;90;48.810;9.120;2022-12-07T13:05:30;4.90;85.00
210;DHT22;90;48.810;9.120;2022-12-07T13:08:00;4.90;84.10
210;DHT22;90;48.810;9.120;2022-12-07T13:10:47;5.00;83.90
210;DHT22;90;48.810;9.120;2022-12-07T13:13:30;4.90;83.80
210;DHT22;90;48.810;9.120;2022-12-07T13:22:44;5.00;83.50
210;DHT22;90;48.810;9.120;2022-12-07T13:25:21;5.00;83.20
210;DHT22;90;48.810;9.120;2022-12-07T13:27:55;5.00;83.00
210;DHT22;90;48.810;9.120;2022-12-07T13:30:24;5.10;83.20
210;DHT22;90;48.810;9.120;2022-12-07T13:32:55;5.00;83.10
210;DHT22;90;48.810;9.120;2022-12-07T13:35:31;5.00;83.20
210;DHT22;90;48.810;9.120;2022-12-07T13:37:58;5.00;83.60
210;DHT22;90;48.810;9.120;2022-12-07T13:40:26;5.00;83.40
210;DHT22;90;48.810;9.120;2022-12-07T13:43:04;4.90;83.60
210;DHT22;90;48.810;9.120;2022-12-07T13:45:33;4.90;84.20
210;DHT22;90;48.810;9.120;2022-12-07T13:48:20;4.90;84.50
210;DHT22;90;48.810;9.120;2022-12-07T13:50:53;4.90;83.90
210;DHT22;90;48.810;9.120;2022-12-07T13:53:20;4.90;84.10
210;DHT22;90;48.810;9.120;2022-12-07T13:55:48;5.00;84.30
210;DHT22;90;48.810;9.120;2022-12-07T13:58:16;5.00;83.90
210;DHT22;90;48.810;9.120;2022-12-07T14:00:44;5.00;84.00
210;DHT22;90;48.810;9.120;2022-12-07T14:03:30;5.00;83.90
210;DHT22;90;48.810;9.120;2022-12-07T14:06:07;5.00;84.10
210;DHT22;90;48.810;9.120;2022-12-07T14:08:34;5.00;83.90
210;DHT22;90;48.810;9.120;2022-12-07T14:11:01;5.10;83.70
210;DHT22;90;48.810;9.120;2022-12-07T14:13:31;5.20;83.50
210;DHT22;90;48.810;9.120;2022-12-07T14:15:59;5.20;83.70
210;DHT22;90;48.810;9.120;2022-12-07T14:18:28;5.10;83.70
210;DHT22;90;48.810;9.120;2022-12-07T14:21:05;5.20;83.30
210;DHT22;90;48.810;9.120;2022-12-07T14:23:33;5.20;83.70
210;DHT22;90;48.810;9.120;2022-12-07T14:26:06;5.20;83.80
210;DHT22;90;48.810;9.120;2022-12-07T14:28:37;5.30;83.60
210;DHT22;90;48.810;9.120;2022-12-07T14:31:11;5.40;83.20
210;DHT22;90;48.810;9.120;2022-12-07T14:33:38;5.40;82.90
210;DHT22;90;48.810;9.120;2022-12-07T14:36:07;5.30;82.90
210;DHT22;90;48.810;9.120;2022-12-07T14:38:35;5.30;82.90
210;DHT22;90;48.810;9.120;2022-12-07T14:41:03;5.30;82.80
210;DHT22;90;48.810;9.120;2022-12-07T14:43:49;5.30;82.90
210;DHT22;90;48.810;9.120;2022-12-07T14:46:16;5.20;82.90
210;DHT22;90;48.810;9.120;2022-12-07T14:48:43;5.10;83.30
210;DHT22;90;48.810;9.120;2022-12-07T14:51:11;5.20;83.10
210;DHT22;90;48.810;9.120;2022-12-07T14:53:41;5.20;82.70
210;DHT22;90;48.810;9.120;2022-12-07T14:56:09;5.10;83.40
210;DHT22;90;48.810;9.120;2022-12-07T14:58:36;5.10;83.50
210;DHT22;90;48.810;9.120;2022-12-07T15:01:04;5.10;84.00
210;DHT22;90;48.810;9.120;2022-12-07T15:03:32;5.10;83.50
210;DHT22;90;48.810;9.120;2022-12-07T15:06:00;5.00;83.50
210;DHT22;90;48.810;9.120;2022-12-07T15:08:27;4.90;83.20
210;DHT22;90;48.810;9.120;2022-12-07T15:10:54;4.80;83.40
210;DHT22;90;48.810;9.120;2022-12-07T15:13:21;4.80;83.50
210;DHT22;90;48.810;9.120;2022-12-07T15:16:10;4.80;83.70
210;DHT22;90;48.810;9.120;2022-12-07T15:18:37;4.80;83.80
210;DHT22;90;48.810;9.120;2022-12-07T15:21:04;4.80;84.40
210;DHT22;90;48.810;9.120;2022-12-07T15:23:31;4.80;84.30
210;DHT22;90;48.810;9.120;2022-12-07T15:25:58;4.70;84.60
210;DHT22;90;48.810;9.120;2022-12-07T15:28:25;4.80;84.70
210;DHT22;90;48.810;9.120;2022-12-07T15:30:52;4.70;84.60
210;DHT22;90;48.810;9.120;2022-12-07T15:33:21;4.70;84.90
210;DHT22;90;48.810;9.120;2022-12-07T15:35:48;4.70;85.20
210;DHT22;90;48.810;9.120;2022-12-07T15:38:14;4.60;85.10
210;DHT22;90;48.810;9.120;2022-12-07T15:40:41;4.60;87.20
210;DHT22;90;48.810;9.120;2022-12-07T15:43:09;5.10;89.00
210;DHT22;90;48.810;9.120;2022-12-07T15:45:56;5.00;84.70
210;DHT22;90;48.810;9.120;2022-12-07T15:48:23;4.80;84.50
210;DHT22;90;48.810;9.120;2022-12-07T15:50:50;4.70;84.90
210;DHT22;90;48.810;9.120;2022-12-07T15:53:18;4.60;84.90
210;DHT22;90;48.810;9.120;2022-12-07T15:55:46;4.60;85.60
210;DHT22;90;48.810;9.120;2022-12-07T15:58:13;4.50;85.80
210;DHT22;90;48.810;9.120;2022-12-07T16:00:40;4.40;86.10
210;DHT22;90;48.810;9.120;2022-12-07T16:03:07;4.40;86.50
210;DHT22;90;48.810;9.120;2022-12-07T16:05:35;4.40;86.60
210;DHT22;90;48.810;9.120;2022-12-07T16:08:02;4.40;86.60
210;DHT22;90;48.810;9.120;2022-12-07T16:10:29;4.30;86.50
210;DHT22;90;48.810;9.120;2022-12-07T16:12:56;4.30;87.10
210;DHT22;90;48.810;9.120;2022-12-07T16:15:23;4.30;87.10
210;DHT22;90;48.810;9.120;2022-12-07T16:17:52;4.20;87.10
210;DHT22;90;48.810;9.120;2022-12-07T16:20:21;4.30;87.00
210;DHT22;90;48.810;9.120;2022-12-07T16:22:51;4.30;86.60
210;DHT22;90;48.810;9.120;2022-12-07T16:25:18;4.30;86.40
210;DHT22;90;48.810;9.120;2022-12-07T16:27:46;4.30;86.10
210;DHT22;90;48.810;9.120;2022-12-07T16:30:14;4.20;86.10
210;DHT22;90;48.810;9.120;2022-12-07T16:32:42;4.20;86.50
210;DHT22;90;48.810;9.120;2022-12-07T16:35:09;4.20;86.20
210;DHT22;90;48.810;9.120;2022-12-07T16:37:36;4.20;85.80
210;DHT22;90;48.810;9.120;2022-12-07T16:40:06;4.20;85.80
210;DHT22;90;48.810;9.120;2022-12-07T16:42:33;4.20;86.00
210;DHT22;90;48.810;9.120;2022-12-07T16:45:01;4.10;86.40
210;DHT22;90;48.810;9.120;2022-12-07T16:47:29;4.10;86.60
210;DHT22;90;48.810;9.120;2022-12-07T16:49:56;4.10;86.60
210;DHT22;90;48.810;9.120;2022-12-07T16:52:23;4.00;86.60
210;DHT22;90;48.810;9.120;2022-12-07T16:54:50;4.10;86.60
210;DHT22;90;48.810;9.120;2022-12-07T16:57:18;4.10;86.90
210;DHT22;90;48.810;9.120;2022-12-07T16:59:45;3.90;87.10
210;DHT22;90;48.810;9.120;2022-12-07T17:02:12;3.90;87.80
210;DHT22;90;48.810;9.120;2022-12-07T17:04:39;3.90;87.90
210;DHT22;90;48.810;9.120;2022-12-07T17:07:08;3.90;87.30
210;DHT22;90;48.810;9.120;2022-12-07T17:09:35;3.90;86.80
210;DHT22;90;48.810;9.120;2022-12-07T17:12:02;3.90;86.30
210;DHT22;90;48.810;9.120;2022-12-07T17:14:32;3.90;86.40
210;DHT22;90;48.810;9.120;2022-12-07T17:17:16;3.90;86.50
210;DHT22;90;48.810;9.120;2022-12-07T17:19:43;3.90;86.50
210;DHT22;90;48.810;9.120;2022-12-07T17:22:10;3.80;86.70
210;DHT22;90;48.810;9.120;2022-12-07T17:24:38;3.90;86.80
210;DHT22;90;48.810;9.120;2022-12-07T17:27:05;3.80;86.70
210;DHT22;90;48.810;9.120;2022-12-07T17:29:34;3.90;86.70
210;DHT22;90;48.810;9.120;2022-12-07T17:32:01;3.90;86.50
210;DHT22;90;48.810;9.120;2022-12-07T17:34:28;3.90;86.70
210;DHT22;90;48.810;9.120;2022-12-07T17:36:55;3.90;86.60
210;DHT22;90;48.810;9.120;2022-12-07T17:39:21;4.00;86.60
210;DHT22;90;48.810;9.120;2022-12-07T17:41:48;4.00;86.80
210;DHT22;90;48.810;9.120;2022-12-07T17:44:34;4.10;86.60
210;DHT22;90;48.810;9.120;2022-12-07T17:47:01;4.10;86.50
210;DHT22;90;48.810;9.120;2022-12-07T17:49:28;4.10;86.10
210;DHT22;90;48.810;9.120;2022-12-07T17:51:55;4.10;86.20